Flight Track Log - Related Links

Times and Time Zones

All times are in EDT time to prevent confusion due to time zone crossing. See the CTL62 flight status page for this flight to view local times or setup timezone preferences in your user account.

Time Position Orientation Groundspeed Altitude Reporting Facility
EDT Latitude Longitude Course Direction KTS km/h feet Rate Location/Type
Sat 01:33:58 AM 42.1333 -87.7667 132° Southeast 131 243 1.700  Level Chicago TRACON
Sat 01:34:46 AM 42.1333 -87.7333 90° East 104 193 2.500 896 Climbing Chicago TRACON
Sat 01:35:05 AM 42.1331 -87.7228 92° East 116 214 2.700 909 Climbing Chicago Center
Sat 01:35:52 AM 42.1167 -87.7000 134° Southeast 93 172 3.500 950 Climbing Chicago TRACON
Sat 01:36:46 AM 42.1167 -87.6667 90° East 95 175 4.300 789 Climbing Chicago TRACON
Sat 01:37:46 AM 42.1000 -87.6333 124° Southeast 101 187 5.000 737 Climbing Chicago TRACON
Sat 01:38:40 AM 42.0833 -87.6000 124° Southeast 110 204 5.700 716 Climbing Chicago TRACON
Sat 01:39:00 AM 41.9881 -87.6071 132° Southeast  Level FlightAware Approximate
Sat 01:41:07 AM 42.0508 -87.5308 122° Southeast 100 185 7.400  Level Chicago Center
Sat 01:42:08 AM 42.0367 -87.4983 120° Southeast 101 187 8.100 694 Climbing Chicago Center
Sat 01:43:08 AM 42.0247 -87.4678 118° Southeast 95 175 8.800 450 Climbing Chicago Center
Sat 01:44:08 AM 42.0114 -87.4353 119° Southeast 96 177 9.000 50 Climbing Chicago Center
Sat 01:45:08 AM 41.9917 -87.3892 120° Southeast 133 246 8.900  Descending Chicago Center
Sat 01:46:09 AM 41.9725 -87.3425 119° Southeast 143 266 9.000 50 Climbing Chicago Center
Sat 01:47:09 AM 41.9494 -87.2981 125° Southeast 144 267 9.000 -50 Level Chicago Center
Sat 01:48:09 AM 41.9275 -87.2472 120° Southeast 155 286 8.900 -50 Descending Chicago Center
Sat 01:49:10 AM 41.9067 -87.1986 120° Southeast 151 280 8.900  Level Chicago Center
Sat 01:50:10 AM 41.8856 -87.1506 121° Southeast 151 280 8.900 50 Level Chicago Center
Sat 01:51:10 AM 41.8669 -87.1014 117° Southeast 149 275 9.000 50 Climbing Chicago Center
Sat 01:52:10 AM 41.8450 -87.0528 121° Southeast 153 283 9.000 99 Level Chicago Center
Sat 01:53:11 AM 41.8269 -87.0025 116° Southeast 152 282 9.200 99 Climbing Chicago Center
Sat 01:54:11 AM 41.8044 -86.9433 117° Southeast 151 280 9.200  Level Chicago Center
Sat 01:55:11 AM 41.7842 -86.8931 118° Southeast 154 285 9.200 -50 Level Chicago Center
Sat 01:56:11 AM 41.7664 -86.8425 115° Southeast 152 282 9.100  Descending Chicago Center
Sat 01:57:12 AM 41.7447 -86.7928 120° Southeast 155 286 9.200 50 Climbing Chicago Center
Sat 01:58:12 AM 41.7322 -86.7386 107° East 154 285 9.200 -50 Level Chicago Center
Sat 01:59:12 AM 41.7147 -86.6931 117° Southeast 152 282 9.100  Descending Chicago Center
Sat 02:00:12 AM 41.6958 -86.6422 116° Southeast 153 283 9.200 50 Climbing Chicago Center
Sat 02:01:13 AM 41.6753 -86.5967 121° Southeast 146 270 9.200 -50 Level Chicago Center
Sat 02:02:13 AM 41.6567 -86.5478 117° Southeast 147 272 9.100 -150 Descending Chicago Center
Sat 02:03:13 AM 41.6381 -86.4975 116° Southeast 150 278 8.900 50 Descending Chicago Center
Sat 02:04:13 AM 41.6153 -86.4533 125° Southeast 145 269 9.200 149 Climbing Chicago Center
Sat 02:05:14 AM 41.5956 -86.4078 120° Southeast 143 266 9.200  Level Chicago Center
Sat 02:06:14 AM 41.5778 -86.3569 115° Southeast 149 275 9.200 -50 Level Chicago Center
Sat 02:07:14 AM 41.5636 -86.3072 111° Southeast 145 269 9.100 -50 Descending Chicago Center
Sat 02:08:14 AM 41.5433 -86.2561 118° Southeast 154 285 9.100 -50 Level Chicago Center
Sat 02:09:15 AM 41.5222 -86.2094 121° Southeast 150 278 9.000 -50 Descending Chicago Center
Sat 02:10:15 AM 41.5117 -86.1572 105° East 149 275 9.000 50 Level Chicago Center
Sat 02:11:15 AM 41.4931 -86.1081 117° Southeast 149 275 9.100 50 Climbing Chicago Center
Sat 02:12:15 AM 41.4731 -86.0622 120° Southeast 145 269 9.100 50 Level Chicago Center
Sat 02:13:16 AM 41.4536 -86.0150 119° Southeast 147 272 9.200  Climbing Chicago Center
Sat 02:14:16 AM 41.4303 -85.9689 124° Southeast 149 275 9.100 -50 Descending Chicago Center
Sat 02:15:16 AM 41.4081 -85.9219 122° Southeast 150 278 9.100 -50 Level Chicago Center
Sat 02:16:16 AM 41.3861 -85.8717 120° Southeast 156 290 9.000  Descending Chicago Center
Sat 02:17:16 AM 41.3653 -85.8239 120° Southeast 152 282 9.100 50 Climbing Chicago Center
Sat 02:18:17 AM 41.3442 -85.7764 121° Southeast 151 280 9.100 -50 Level Chicago Center
Sat 02:19:17 AM 41.3208 -85.7186 118° Southeast 149 275 9.000  Descending Chicago Center
Sat 02:20:17 AM 41.3022 -85.6692 117° Southeast 151 280 9.100 100 Climbing Chicago Center
Sat 02:21:17 AM 41.2847 -85.6203 115° Southeast 149 275 9.200  Climbing Chicago Center
Sat 02:22:17 AM 41.2636 -85.5736 121° Southeast 147 272 9.100 -99 Descending Chicago Center
Sat 02:23:18 AM 41.2472 -85.5228 113° Southeast 150 278 9.000 -99 Descending Chicago Center
Sat 02:24:18 AM 41.2294 -85.4728 115° Southeast 150 278 8.900  Descending Chicago Center
Sat 02:25:18 AM 41.2133 -85.4231 113° Southeast 149 275 9.000 50 Climbing Chicago Center
Sat 02:26:18 AM 41.1956 -85.3725 115° Southeast 150 278 9.000  Level Chicago Center
Sat 02:27:19 AM 41.1806 -85.3211 111° Southeast 150 278 9.000 -50 Level Chicago Center
Sat 02:28:19 AM 41.1644 -85.2681 112° Southeast 152 282 8.900  Descending Chicago Center
Sat 02:29:19 AM 41.1517 -85.2153 108° East 152 282 9.000  Climbing Chicago Center
Sat 02:30:19 AM 41.1342 -85.1647 115° Southeast 152 282 8.900  Descending Chicago Center
Sat 02:31:19 AM 41.1156 -85.1161 117° Southeast 151 280 9.000 50 Climbing Chicago Center
Sat 02:32:20 AM 41.0864 -85.0819 139° Southeast 146 270 9.000  Level Chicago Center
Sat 02:33:20 AM 41.0633 -85.0378 125° Southeast 145 269 9.000 50 Level Chicago Center
Sat 02:34:20 AM 41.0414 -84.9925 123° Southeast 145 269 9.100  Climbing Chicago Center
Sat 02:35:20 AM 41.0206 -84.9439 120° Southeast 148 274 9.000 -100 Descending Chicago Center
Sat 02:36:20 AM 40.9958 -84.8989 126° Southeast 150 278 8.900 33 Descending Chicago Center
Sat 02:38:21 AM 40.9411 -84.8183 132° Southeast 149 275 9.100 25 Climbing Chicago Center
Sat 02:40:21 AM 40.8861 -84.7392 133° Southeast 148 274 9.000 -33 Descending Chicago Center
Sat 02:41:21 AM 40.8600 -84.6964 129° Southeast 149 275 9.000 50 Level Chicago Center
Sat 02:42:21 AM 40.8386 -84.6500 121° Southeast 148 274 9.100  Climbing Chicago Center
Sat 02:43:22 AM 40.8192 -84.6000 117° Southeast 149 275 9.000 -99 Descending Chicago Center
Sat 02:44:22 AM 40.7956 -84.5528 123° Southeast 152 282 8.900 50 Descending Chicago Center
Sat 02:45:22 AM 40.7769 -84.5031 116° Southeast 152 282 9.100 150 Climbing Chicago Center
Sat 02:46:22 AM 40.7569 -84.4556 119° Southeast 150 278 9.200 50 Climbing Chicago Center
Sat 02:47:22 AM 40.7358 -84.4097 121° Southeast 148 274 9.200 -99 Level Chicago Center
Sat 02:48:23 AM 40.7139 -84.3619 121° Southeast 150 278 9.000 -133 Descending Chicago Center
Sat 02:48:52 AM 40.6981 -84.3358 129° Southeast 155 286 9.000  Level Indianapolis Center
Sat 02:49:24 AM 40.6886 -84.3125 118° Southeast 145 269 9.000  Level Indianapolis Center
Sat 02:49:53 AM 40.6747 -84.2858 124° Southeast 148 274 9.000 -100 Level Indianapolis Center
Sat 02:50:24 AM 40.6658 -84.2656 120° Southeast 148 274 8.900  Descending Indianapolis Center
Sat 02:50:53 AM 40.6531 -84.2417 125° Southeast 147 272 9.000 100 Climbing Indianapolis Center
Sat 02:51:24 AM 40.6422 -84.2197 123° Southeast 149 275 9.000  Level Indianapolis Center
Sat 02:51:54 AM 40.6314 -84.1975 123° Southeast 145 269 9.000  Level Indianapolis Center
Sat 02:52:24 AM 40.6206 -84.1747 122° Southeast 145 269 9.000  Level Indianapolis Center
Sat 02:53:01 AM 40.6058 -84.1500 128° Southeast 145 269 9.000  Level Indianapolis Center
Sat 02:53:25 AM 40.5983 -84.1306 117° Southeast 144 267 9.000  Level Indianapolis Center
Sat 02:53:55 AM 40.5858 -84.1089 127° Southeast 146 270 9.000  Level Indianapolis Center
Sat 02:54:25 AM 40.5761 -84.0850 118° Southeast 146 270 9.000  Level Indianapolis Center
Sat 02:54:56 AM 40.5642 -84.0647 128° Southeast 145 269 9.000  Level Indianapolis Center
Sat 02:55:25 AM 40.5533 -84.0397 120° Southeast 147 272 9.000  Level Indianapolis Center
Sat 02:55:56 AM 40.5425 -84.0206 127° Southeast 145 269 9.000  Level Indianapolis Center
Sat 02:56:25 AM 40.5303 -83.9944 122° Southeast 147 272 9.000  Level Indianapolis Center
Sat 02:56:57 AM 40.5189 -83.9736 126° Southeast 150 278 9.000  Level Indianapolis Center
Sat 02:57:25 AM 40.5131 -83.9569 115° Southeast 144 267 9.000  Level Indianapolis Center
Sat 02:57:58 AM 40.4969 -83.9297 128° Southeast 147 272 9.000 100 Level Indianapolis Center
Sat 02:58:25 AM 40.4892 -83.9111 119° Southeast 149 275 9.100 -100 Climbing Indianapolis Center
Sat 02:58:58 AM 40.4711 -83.8825 130° Southeast 146 270 8.900 -200 Descending Indianapolis Center
Sat 02:59:25 AM 40.4664 -83.8658 110° East 148 274 8.900 -295 Level Indianapolis Center
Sat 02:59:59 AM 40.4475 -83.8356 129° Southeast 153 283 8.600 -500 Descending Indianapolis Center
Sat 03:00:25 AM 40.4425 -83.8178 110° East 153 283 8.400 -500 Descending Indianapolis Center
Sat 03:00:59 AM 40.4222 -83.7828 127° Southeast 167 309 8.100 -400 Descending Indianapolis Center
Sat 03:01:25 AM 40.4158 -83.7653 116° Southeast 167 309 8.000 -492 Descending Indianapolis Center
Sat 03:02:00 AM 40.3964 -83.7331 128° Southeast 170 315 7.600 -500 Descending Indianapolis Center
Sat 03:02:25 AM 40.3900 -83.7139 114° Southeast 167 309 7.500 -590 Descending Indianapolis Center
Sat 03:03:01 AM 40.3711 -83.6806 127° Southeast 171 317 7.000 -590 Descending Indianapolis Center
Sat 03:03:26 AM 40.3636 -83.6606 116° Southeast 171 317 6.900 -500 Descending Indianapolis Center
Sat 03:04:01 AM 40.3456 -83.6281 126° Southeast 171 317 6.500 -600 Descending Indianapolis Center
Sat 03:04:26 AM 40.3364 -83.6086 122° Southeast 172 319 6.300 -590 Descending Indianapolis Center
Sat 03:05:02 AM 40.3181 -83.5753 126° Southeast 171 317 5.900 -600 Descending Indianapolis Center
Sat 03:05:26 AM 40.3103 -83.5564 118° Southeast 170 315 5.700 -700 Descending Indianapolis Center
Sat 03:06:02 AM 40.2947 -83.5233 122° Southeast 168 311 5.200 -800 Descending Indianapolis Center
Sat 03:06:26 AM 40.2858 -83.5025 119° Southeast 170 315 4.900 -873 Descending Indianapolis Center
Sat 03:06:57 AM 40.2708 -83.4739 124° Southeast 171 317 4.400 -500 Descending Indianapolis Center
Sat 03:07:26 AM 40.2611 -83.4494 118° Southeast 170 315 4.400  Level Indianapolis Center
Sat 03:07:58 AM 40.2492 -83.4275 125° Southeast 146 270 4.400 100 Level Indianapolis Center
Sat 03:08:26 AM 40.2392 -83.4039 119° Southeast 159 295 4.500 -100 Climbing Indianapolis Center
Sat 03:08:58 AM 40.2275 -83.3811 124° Southeast 140 259 4.300 -400 Descending Indianapolis Center
Sat 03:09:26 AM 40.2189 -83.3611 119° Southeast 146 270 4.100 -590 Descending Indianapolis Center
Sat 03:09:59 AM 40.2033 -83.3372 130° Southeast 150 278 3.700 -700 Descending Indianapolis Center
Sat 03:10:26 AM 40.1942 -83.3153 119° Southeast 147 272 3.400 -800 Descending Indianapolis Center
Sat 03:10:59 AM 40.1794 -83.2906 128° Southeast 154 285 2.900 -400 Descending Indianapolis Center
Sat 03:11:26 AM 40.1692 -83.2675 120° Southeast 149 275 3.000 222 Climbing Indianapolis Center
Sat 03:13:00 AM 40.1346 -83.1996 124° Southeast  Level FlightAware Approximate
Sat 03:20:00 AM 40.0798 -83.0732 123° Southeast  Level Estimated
Sat 03:21:00 AM 40.0798 -83.0732 123° Southeast  Level Estimated

Login

Don't have an account? Register now (free) for customized features, flight alerts, and more!